createdAt,value
2022-11-29T00:01:59.894Z,56.17
2022-11-29T00:07:01.481Z,53.83
2022-11-29T00:12:12.128Z,53.60
2022-11-29T00:17:13.570Z,41.92
2022-11-29T00:22:15.093Z,49.28
2022-11-29T00:27:16.793Z,45.58
2022-11-29T00:32:18.349Z,45.67
2022-11-29T00:37:19.852Z,46.22
2022-11-29T00:42:21.420Z,48.90
2022-11-29T00:47:23.105Z,45.35
2022-11-29T00:52:24.616Z,50.38
2022-11-29T00:57:26.057Z,55.00
2022-11-29T01:02:27.622Z,49.95
2022-11-29T01:07:29.196Z,56.78
2022-11-29T01:12:30.820Z,53.85
2022-11-29T01:17:35.418Z,58.47
2022-11-29T01:22:38.262Z,51.78
2022-11-29T01:27:39.889Z,51.83
2022-11-29T01:32:41.402Z,51.92
2022-11-29T01:37:42.888Z,51.80
2022-11-29T01:42:44.567Z,50.65
2022-11-29T01:47:47.660Z,50.27
2022-11-29T01:52:49.485Z,54.27
2022-11-29T01:57:51.551Z,52.03
2022-11-29T02:02:59.187Z,52.75
2022-11-29T02:08:02.049Z,55.22
2022-11-29T02:13:32.595Z,56.20
2022-11-29T02:18:36.766Z,52.10
2022-11-29T02:23:50.299Z,53.63
2022-11-29T02:29:11.013Z,58.42
2022-11-29T02:34:46.847Z,54.63
2022-11-29T02:40:10.021Z,50.25
2022-11-29T02:45:20.574Z,50.00
2022-11-29T02:50:25.069Z,49.10
2022-11-29T02:55:57.489Z,51.00
2022-11-29T03:01:11.545Z,47.70
2022-11-29T03:06:40.748Z,48.17
2022-11-29T03:11:51.940Z,48.83
2022-11-29T03:17:32.645Z,59.80
2022-11-29T03:22:54.886Z,46.90
2022-11-29T03:28:14.701Z,48.67
2022-11-29T03:33:27.537Z,52.17
2022-11-29T03:38:41.169Z,50.28
2022-11-29T03:43:53.194Z,56.87
2022-11-29T03:49:02.541Z,49.88
2022-11-29T03:54:10.772Z,53.22
2022-11-29T03:59:14.953Z,53.90
2022-11-29T04:04:31.475Z,47.20
2022-11-29T04:10:09.776Z,51.13
2022-11-29T04:15:33.628Z,50.03
2022-11-29T04:21:03.090Z,55.70
2022-11-29T04:26:42.480Z,51.58
2022-11-29T04:32:02.748Z,53.07
2022-11-29T04:37:35.392Z,56.47
2022-11-29T04:42:53.497Z,56.17
2022-11-29T04:48:09.911Z,49.97
2022-11-29T04:53:11.321Z,56.27
2022-11-29T04:58:21.542Z,53.53
2022-11-29T05:03:53.828Z,50.05
2022-11-29T05:09:15.729Z,55.60
2022-11-29T05:14:43.625Z,57.55
2022-11-29T05:19:51.336Z,58.85
2022-11-29T05:24:58.990Z,60.67
2022-11-29T05:30:03.730Z,58.50
2022-11-29T05:35:26.192Z,53.53
2022-11-29T05:40:39.521Z,55.43
2022-11-29T05:45:50.369Z,55.43
2022-11-29T05:51:09.746Z,57.13
2022-11-29T05:56:39.009Z,55.97
2022-11-29T06:02:05.897Z,51.20
2022-11-29T06:07:19.167Z,53.80
2022-11-29T06:12:23.317Z,57.70
2022-11-29T06:17:38.745Z,56.93
2022-11-29T06:22:55.921Z,58.83
2022-11-29T06:28:09.529Z,54.03
2022-11-29T06:33:22.652Z,55.00
2022-11-29T06:38:30.137Z,60.20
2022-11-29T06:43:31.987Z,63.22
2022-11-29T06:48:41.589Z,60.90
2022-11-29T06:54:10.766Z,55.17
2022-11-29T06:59:22.177Z,57.33
2022-11-29T07:04:46.412Z,52.80
2022-11-29T07:09:53.102Z,56.27
2022-11-29T07:14:54.934Z,57.85
2022-11-29T07:20:10.531Z,60.30
2022-11-29T07:25:17.922Z,56.37
2022-11-29T07:30:22.581Z,60.45
2022-11-29T07:40:40.293Z,57.30
2022-11-29T07:45:42.295Z,54.60
2022-11-29T07:50:45.220Z,56.17
2022-11-29T07:55:48.500Z,59.30
2022-11-29T08:00:50.057Z,64.17
2022-11-29T08:05:51.595Z,56.42
2022-11-29T08:10:53.093Z,54.28
2022-11-29T08:15:54.587Z,52.77
2022-11-29T08:20:56.061Z,64.20
2022-11-29T08:26:01.664Z,57.28
2022-11-29T08:31:06.040Z,58.67
2022-11-29T08:36:16.592Z,51.75
2022-11-29T08:41:18.113Z,55.25
2022-11-29T08:46:19.678Z,57.95
2022-11-29T08:51:21.209Z,67.55
2022-11-29T09:01:44.241Z,62.08
2022-11-29T09:06:49.147Z,62.50
2022-11-29T09:11:50.963Z,59.17
2022-11-29T09:16:52.631Z,60.28
2022-11-29T09:21:54.340Z,61.72
2022-11-29T09:26:55.790Z,60.17
2022-11-29T09:31:57.336Z,60.75
2022-11-29T09:36:59.205Z,64.40
2022-11-29T09:42:09.777Z,64.93
2022-11-29T09:47:31.197Z,62.53
2022-11-29T09:53:05.664Z,65.10
2022-11-29T09:58:13.506Z,61.22
2022-11-29T10:03:29.350Z,64.22
2022-11-29T10:08:36.609Z,62.55
2022-11-29T10:13:44.997Z,58.88
2022-11-29T10:18:51.874Z,61.13
2022-11-29T10:23:57.649Z,60.20
2022-11-29T10:28:59.652Z,62.05
2022-11-29T10:34:07.877Z,58.40
2022-11-29T10:39:20.866Z,59.55
2022-11-29T10:44:24.004Z,59.65
2022-11-29T10:49:28.180Z,59.25
2022-11-29T10:54:41.623Z,57.15
2022-11-29T10:59:58.952Z,58.05
2022-11-29T11:05:01.241Z,51.55
2022-11-29T11:10:21.947Z,54.75
2022-11-29T11:15:29.025Z,66.03
2022-11-29T11:20:33.550Z,61.83
2022-11-29T11:25:38.895Z,61.83
2022-11-29T11:30:40.590Z,57.95
2022-11-29T11:35:42.134Z,60.22
2022-11-29T11:40:44.733Z,61.92
2022-11-29T11:45:53.512Z,66.55
2022-11-29T11:50:58.256Z,52.53
2022-11-29T12:01:11.741Z,47.78
2022-11-29T12:06:38.471Z,49.17
2022-11-29T12:12:00.135Z,54.80
2022-11-29T12:17:32.345Z,54.83
2022-11-29T12:23:07.993Z,55.13
2022-11-29T12:28:19.869Z,52.53
2022-11-29T12:33:31.317Z,56.08
2022-11-29T12:38:59.256Z,52.28
2022-11-29T12:44:29.471Z,51.88
2022-11-29T12:49:45.277Z,49.85
2022-11-29T12:55:13.202Z,54.45
2022-11-29T13:00:20.084Z,50.00
2022-11-29T13:05:56.565Z,50.78
2022-11-29T13:11:08.301Z,60.88
2022-11-29T13:16:47.116Z,63.58
2022-11-29T13:22:02.872Z,60.08
2022-11-29T13:27:06.479Z,62.90
2022-11-29T13:32:15.742Z,69.13
2022-11-29T13:37:33.520Z,67.22
2022-11-29T13:42:52.294Z,65.00
2022-11-29T13:47:55.675Z,67.22
2022-11-29T13:53:11.640Z,64.25
2022-11-29T13:58:17.942Z,62.60
2022-11-29T14:03:28.460Z,65.22
2022-11-29T14:09:16.631Z,66.05
2022-11-29T14:14:25.771Z,67.35
2022-11-29T14:19:35.818Z,68.93
2022-11-29T14:24:37.742Z,73.65
2022-11-29T14:29:53.513Z,67.75
2022-11-29T14:35:04.215Z,66.72
2022-11-29T14:40:26.312Z,64.13
2022-11-29T14:45:35.051Z,66.32
2022-11-29T14:50:39.094Z,67.60
2022-11-29T14:55:42.890Z,64.63
2022-11-29T15:00:47.119Z,64.37
2022-11-29T15:05:56.469Z,62.15
2022-11-29T15:11:04.099Z,66.07
2022-11-29T15:16:22.901Z,64.70
2022-11-29T15:21:45.770Z,64.13
2022-11-29T15:27:02.272Z,61.75
2022-11-29T15:32:05.612Z,67.88
2022-11-29T15:37:13.828Z,65.40
2022-11-29T15:42:15.895Z,65.05
2022-11-29T15:47:26.655Z,60.85
2022-11-29T15:52:37.047Z,68.50
2022-11-29T15:57:43.106Z,72.63
2022-11-29T16:02:54.312Z,66.43
2022-11-29T16:08:00.369Z,67.85
2022-11-29T16:13:25.356Z,72.15
2022-11-29T16:18:27.924Z,66.43
2022-11-29T16:23:37.586Z,66.57
2022-11-29T16:28:44.757Z,68.80
2022-11-29T16:33:49.156Z,66.05
2022-11-29T16:38:59.410Z,65.93
2022-11-29T16:44:03.505Z,65.30
2022-11-29T16:49:32.704Z,77.35
2022-11-29T16:54:34.360Z,67.38
2022-11-29T16:59:38.608Z,72.75
2022-11-29T17:04:40.685Z,73.18
2022-11-29T17:09:42.152Z,73.88
2022-11-29T17:14:43.959Z,72.97
2022-11-29T17:19:45.805Z,75.07
2022-11-29T17:24:48.472Z,76.27
2022-11-29T17:29:50.241Z,74.63
2022-11-29T17:34:51.822Z,76.90
2022-11-29T17:39:53.319Z,72.45
2022-11-29T17:44:54.851Z,76.70
2022-11-29T17:49:56.373Z,74.78
2022-11-29T17:54:58.002Z,69.82
2022-11-29T17:59:59.515Z,77.15
2022-11-29T18:05:01.081Z,69.68
2022-11-29T18:10:02.571Z,67.90
2022-11-29T18:15:04.320Z,71.00
2022-11-29T18:20:06.521Z,72.65
2022-11-29T18:25:37.191Z,76.70
2022-11-29T18:30:29.822Z,70.07
2022-11-29T18:35:31.368Z,75.53
2022-11-29T18:40:32.846Z,72.68
2022-11-29T18:45:36.205Z,74.30
2022-11-29T18:50:37.775Z,68.55
2022-11-29T18:55:39.272Z,68.82
2022-11-29T19:00:40.829Z,70.72
2022-11-29T19:05:50.565Z,70.82
2022-11-29T19:10:52.082Z,75.13
2022-11-29T19:15:54.883Z,73.80
2022-11-29T19:21:08.433Z,71.13
2022-11-29T19:26:15.080Z,71.83
2022-11-29T19:31:18.675Z,69.97
2022-11-29T19:36:23.114Z,71.95
2022-11-29T19:41:30.080Z,68.13
2022-11-29T19:46:34.066Z,78.85
2022-11-29T19:51:36.191Z,68.15
2022-11-29T19:56:38.864Z,68.88
2022-11-29T20:01:42.339Z,68.43
2022-11-29T20:06:44.471Z,72.43
2022-11-29T20:11:45.945Z,70.10
2022-11-29T20:16:47.501Z,74.38
2022-11-29T20:21:49.217Z,66.03
2022-11-29T20:26:51.164Z,66.93
2022-11-29T20:31:52.864Z,74.78
2022-11-29T20:37:07.400Z,63.97
2022-11-29T20:47:40.978Z,64.97
2022-11-29T20:52:49.381Z,78.90
2022-11-29T20:57:51.037Z,74.95
2022-11-29T21:02:52.576Z,71.70
2022-11-29T21:07:54.296Z,73.35
2022-11-29T21:12:56.076Z,68.55
2022-11-29T21:17:57.978Z,70.00
2022-11-29T21:23:21.097Z,67.50
2022-11-29T21:28:28.005Z,61.15
2022-11-29T21:33:29.818Z,75.33
2022-11-29T21:38:31.632Z,65.50
2022-11-29T21:44:04.271Z,67.28
2022-11-29T21:48:54.525Z,70.25
2022-11-29T21:53:55.981Z,63.35
2022-11-29T21:58:57.457Z,63.90
2022-11-29T22:03:59.668Z,64.10
2022-11-29T22:09:01.217Z,68.07
2022-11-29T22:14:14.278Z,69.65
2022-11-29T22:19:21.733Z,66.40
2022-11-29T22:24:25.512Z,62.75
2022-11-29T22:29:27.414Z,72.60
2022-11-29T22:34:29.047Z,70.80
2022-11-29T22:39:30.505Z,68.30
2022-11-29T22:44:31.991Z,66.32
2022-11-29T22:49:34.323Z,68.30
2022-11-29T22:54:35.764Z,58.00
2022-11-29T22:59:37.254Z,62.17
2022-11-29T23:04:38.710Z,65.07
2022-11-29T23:09:40.184Z,70.15
2022-11-29T23:14:41.681Z,66.53
2022-11-29T23:19:43.112Z,61.53
2022-11-29T23:24:44.679Z,71.50
2022-11-29T23:29:46.397Z,66.07
2022-11-29T23:34:48.115Z,71.68
2022-11-29T23:39:49.755Z,75.38
2022-11-29T23:44:51.210Z,80.78
2022-11-29T23:49:52.681Z,70.80
2022-11-29T23:54:54.244Z,69.35
2022-11-29T23:59:56.553Z,72.05
